Time;durP1;ratioP1;P1;durP2;ratioP2;P2;SDS_P1;SDS_P2;PMS_P1;PMS_P2;Temp;Humidity;BMP_temperature;BMP_pressure;BME280_temperature;BME280_humidity;BME280_pressure;Samples;Min_cycle;Max_cycle;Signal;HPM_P1;HPM_P2
2023/02/28 00:12:11;;;;;;;10.50;4.97;;;;;;;-5.79;61.55;100432.13;6149650;23;20025;-89
2023/02/28 02:27:21;;;;;;;;;;;;;;;;;;;;;
2023/02/28 02:30:42;;;;;;;9.57;3.42;;;;;;;-7.73;64.29;100306.56;6150597;23;20013;-85
2023/02/28 02:34:20;;;;;;;7.20;3.47;;;;;;;-8.15;64.29;100237.84;6167562;23;20013;-85
2023/02/28 02:37:35;;;;;;;7.05;3.30;;;;;;;-7.71;64.95;100299.97;6157307;23;20053;-85
2023/02/28 02:40:55;;;;;;;7.88;3.63;;;;;;;-8.13;65.02;100222.81;6137185;23;20025;-86
2023/02/28 02:44:01;;;;;;;;;;;;;;;;;;;;;
2023/02/28 02:46:44;;;;;;;8.30;3.53;;;;;;;-8.03;65.15;100223.59;6133108;23;20001;-84
2023/02/28 02:49:58;;;;;;;7.15;3.55;;;;;;;-7.57;65.16;100294.22;6132708;23;20065;-84
2023/02/28 02:53:24;;;;;;;7.03;2.92;;;;;;;-7.57;65.01;100289.19;6091683;23;20033;-84
2023/02/28 02:56:33;;;;;;;5.95;3.08;;;;;;;-8.25;64.70;100182.38;6095062;23;20018;-84
2023/02/28 02:59:10;;;;;;;6.47;3.08;;;;;;;-7.56;65.20;100290.06;6094678;23;20022;-85
2023/02/28 03:01:44;;;;;;;6.20;3.33;;;;;;;-7.69;64.91;100247.88;6093616;23;20054;-83
2023/02/28 03:04:20;;;;;;;6.93;3.25;;;;;;;-8.22;65.09;100147.25;6045101;23;20071;-85
2023/02/28 03:06:57;;;;;;;6.53;3.13;;;;;;;-7.53;65.30;100266.66;6115444;23;20018;-85
2023/02/28 03:09:46;;;;;;;;;;;;;;;;;;;;;
2023/02/28 03:12:26;;;;;;;6.05;3.20;;;;;;;-8.48;65.36;100105.91;6046696;23;20046;-87
2023/02/28 03:18:48;;;;;;;6.70;3.05;;;;;;;-7.51;65.39;100252.47;6072415;23;20067;-83
2023/02/28 03:28:46;;;;;;;6.25;3.15;;;;;;;-7.74;65.23;100209.63;6032472;23;20006;-84
2023/02/28 03:32:21;;;;;;;;;;;;;;;;;;;;;
2023/02/28 03:42:56;;;;;;;5.78;2.65;;;;;;;-8.25;65.66;100092.34;6124571;23;20026;-84
2023/02/28 03:45:33;;;;;;;6.40;2.90;;;;;;;-7.66;66.10;100166.31;6007988;23;20024;-86
2023/02/28 03:48:20;;;;;;;6.82;3.25;;;;;;;-7.45;65.95;100188.03;6123474;23;20048;-86
2023/02/28 03:51:13;;;;;;;;;;;;;;;;;;;;;
2023/02/28 03:59:03;;;;;;;6.65;3.28;;;;;;;-7.43;65.90;100173.84;6106261;23;20026;-86
2023/02/28 04:02:43;;;;;;;;;;;;;;;;;;;;;
2023/02/28 04:06:07;;;;;;;5.57;3.03;;;;;;;-7.46;65.83;100171.09;6135610;23;20021;-86
2023/02/28 04:08:58;;;;;;;7.13;3.20;;;;;;;-7.44;65.95;100161.09;6087228;23;20021;-87
2023/02/28 04:11:58;;;;;;;7.10;3.03;;;;;;;-7.46;65.98;100155.06;6103469;23;20010;-87
2023/02/28 04:14:38;;;;;;;7.88;3.45;;;;;;;-8.06;65.63;100045.66;6079278;23;20026;-86
2023/02/28 04:18:30;;;;;;;6.32;2.85;;;;;;;-7.41;66.28;100144.47;6133274;23;20087;-86
2023/02/28 04:21:11;;;;;;;5.90;3.30;;;;;;;-7.74;65.74;100072.25;6077113;23;20013;-87
2023/02/28 04:23:52;;;;;;;6.18;3.63;;;;;;;-7.40;65.80;100140.31;6078668;23;20026;-86
2023/02/28 04:26:48;;;;;;;6.28;3.40;;;;;;;-7.64;65.82;100089.84;6124401;23;20022;-87
2023/02/28 04:29:53;;;;;;;7.38;3.33;;;;;;;-7.80;65.81;100059.19;6126831;23;20018;-84
2023/02/28 04:32:43;;;;;;;5.80;2.85;;;;;;;-7.95;65.75;100016.97;6124428;23;20025;-86
2023/02/28 04:35:42;;;;;;;7.30;3.08;;;;;;;-7.43;66.09;100085.34;6022758;23;20202;-88
2023/02/28 04:39:22;;;;;;;7.78;3.35;;;;;;;-7.78;65.95;99992.84;6038166;23;20050;-87
2023/02/28 05:22:34;;;;;;;4.50;2.70;;;;;;;-1.13;57.45;99899.34;6131922;23;20022;-87
2023/02/28 05:25:22;;;;;;;;;;;;;;;;;;;;;
2023/02/28 05:29:33;;;;;;;;;;;;;;;0.76;55.66;99993.25;6058741;23;19929;-90
2023/02/28 05:32:00;;;;;;;4.28;2.33;;;;;;;0.77;54.93;99918.16;6038366;23;20014;-88
2023/02/28 05:34:36;;;;;;;4.50;3.10;;;;;;;1.29;54.70;99985.59;6036930;23;20026;-87
2023/02/28 05:37:07;;;;;;;4.25;2.42;;;;;;;1.52;54.16;99974.28;6078508;23;20053;-90
2023/02/28 05:40:12;;;;;;;4.70;2.50;;;;;;;2.00;53.75;99938.06;6141977;23;20020;-87
2023/02/28 05:43:29;;;;;;;;;;;;;;;;;;;;;
2023/02/28 05:46:16;;;;;;;3.53;2.25;;;;;;;3.50;50.21;99938.34;6137062;23;20089;-87
2023/02/28 05:48:53;;;;;;;4.32;2.53;;;;;;;3.64;50.18;99932.66;6111357;23;20025;-88
2023/02/28 05:51:19;;;;;;;4.57;2.88;;;;;;;3.53;50.09;99940.13;6131888;23;20025;-83
2023/02/28 05:53:49;;;;;;;4.72;2.95;;;;;;;3.84;50.05;99864.44;6106318;23;20022;-87
2023/02/28 05:56:37;;;;;;;3.58;2.50;;;;;;;4.44;48.52;99858.59;6108346;23;20054;-89
2023/02/28 05:59:04;;;;;;;4.32;2.88;;;;;;;4.05;46.60;99814.16;6108044;23;20017;-88
2023/02/28 06:01:37;;;;;;;4.15;2.55;;;;;;;4.17;45.93;99777.44;6108512;23;20017;-86
2023/02/28 06:04:19;;;;;;;4.45;2.85;;;;;;;4.83;45.46;99834.34;6089695;23;20367;-87
2023/02/28 06:06:55;;;;;;;3.13;2.03;;;;;;;5.23;44.94;99870.13;6084428;23;20025;-87
2023/02/28 06:09:37;;;;;;;3.53;2.70;;;;;;;5.21;44.92;99807.31;6107680;23;20010;-87
2023/02/28 06:12:15;;;;;;;;;;;;;;;;;;;;;
2023/02/28 06:14:50;;;;;;;3.45;2.60;;;;;;;6.60;42.65;99881.19;6136519;23;20089;-86
2023/02/28 06:17:19;;;;;;;4.75;3.05;;;;;;;7.19;42.50;99881.59;6082843;23;20029;-89
2023/02/28 06:20:02;;;;;;;4.95;2.53;;;;;;;7.17;41.61;99771.19;6101296;23;20017;-88
2023/02/28 06:23:17;;;;;;;4.82;2.45;;;;;;;8.43;40.77;99874.31;6133040;23;20006;-89
2023/02/28 06:25:57;;;;;;;5.00;2.60;;;;;;;8.12;39.36;99786.09;6155389;23;20065;-88
2023/02/28 06:29:09;;;;;;;4.82;2.70;;;;;;;8.80;38.24;99766.22;6155979;23;20164;-87
2023/02/28 06:32:16;;;;;;;4.13;2.70;;;;;;;9.16;35.92;99837.94;6114964;23;20117;-87
2023/02/28 06:35:00;;;;;;;3.67;2.58;;;;;;;7.68;35.08;99759.28;6138014;23;20017;-88
2023/02/28 06:38:18;;;;;;;7.57;2.83;;;;;;;8.11;36.80;99806.84;6121263;23;20048;-82
2023/02/28 06:41:03;;;;;;;4.80;2.63;;;;;;;8.53;36.11;99776.66;6110621;23;20009;-88
2023/02/28 06:43:36;;;;;;;4.10;2.88;;;;;;;9.06;34.36;99765.28;6105627;23;20044;-84
2023/02/28 06:46:11;;;;;;;5.30;2.63;;;;;;;9.04;34.41;99825.00;6134708;23;20021;-91
2023/02/28 06:48:49;;;;;;;3.97;2.83;;;;;;;8.98;34.13;99709.06;6133356;23;20021;-85
2023/02/28 06:51:58;;;;;;;5.70;3.10;;;;;;;10.80;32.95;99734.66;6109010;23;20018;-90
2023/02/28 06:54:27;;;;;;;3.40;2.55;;;;;;;10.63;31.29;99780.81;6065533;23;20052;-87
2023/02/28 06:57:43;;;;;;;4.30;2.60;;;;;;;10.45;31.22;99696.88;6143093;23;20024;-89
2023/02/28 07:00:29;;;;;;;4.03;2.40;;;;;;;10.90;31.03;99794.44;6067355;23;20414;-86
2023/02/28 07:03:43;;;;;;;4.88;2.70;;;;;;;10.57;30.54;99775.66;6169162;23;20021;-88
2023/02/28 07:07:03;;;;;;;4.53;2.55;;;;;;;9.08;30.16;99753.19;6137164;23;20048;-88
2023/02/28 07:09:59;;;;;;;3.38;2.25;;;;;;;7.82;31.50;99761.91;6146212;23;20017;-83
2023/02/28 07:12:33;;;;;;;7.57;3.30;;;;;;;6.75;32.06;99769.25;6172682;23;20081;-84
2023/02/28 07:15:33;;;;;;;;;;;;;;;;;;;;;
2023/02/28 07:18:30;;;;;;;3.13;2.30;;;;;;;7.57;31.86;99734.22;6121137;23;20033;-88
2023/02/28 07:21:13;;;;;;;7.25;2.80;;;;;;;7.72;31.56;99681.59;6130247;23;19997;-85
2023/02/28 07:24:27;;;;;;;;;;;;;;;;;;;;;
2023/02/28 07:27:27;;;;;;;5.75;2.78;;;;;;;6.43;31.85;99697.50;6103389;23;20080;-83
2023/02/28 07:34:26;;;;;;;4.05;2.60;;;;;;;3.80;33.90;99715.88;6165788;23;20028;-86
2023/02/28 07:37:53;;;;;;;4.55;2.70;;;;;;;3.19;34.79;99659.03;6069140;23;20078;-82
2023/02/28 07:40:26;;;;;;;5.13;2.80;;;;;;;2.98;35.48;99602.09;6171899;23;20023;-85
2023/02/28 07:43:01;;;;;;;5.45;2.30;;;;;;;2.50;35.33;99587.47;6143015;23;20113;-89
2023/02/28 07:45:50;;;;;;;4.00;2.50;;;;;;;2.89;35.74;99627.63;6105329;23;20057;-86
2023/02/28 07:48:59;;;;;;;5.32;2.75;;;;;;;3.11;36.56;99561.19;6109085;23;20024;-86
2023/02/28 07:52:24;;;;;;;4.55;2.33;;;;;;;3.56;36.36;99579.94;6157646;23;20009;-87
2023/02/28 07:54:56;;;;;;;3.67;2.05;;;;;;;4.36;35.04;99550.19;6137496;23;20009;-87
2023/02/28 07:57:51;;;;;;;2.55;2.03;;;;;;;4.39;35.32;99588.00;6132415;23;20037;-84
2023/02/28 08:00:58;;;;;;;4.18;2.45;;;;;;;5.33;35.62;99597.59;6154515;23;20024;-84
2023/02/28 08:03:29;;;;;;;4.43;2.30;;;;;;;5.90;35.56;99641.97;6128859;23;20013;-85
2023/02/28 08:06:07;;;;;;;;;;;;;;;;;;;;;
2023/02/28 08:08:44;;;;;;;3.50;2.50;;;;;;;8.34;33.78;99573.50;6131658;23;20032;-88
2023/02/28 08:12:03;;;;;;;5.32;2.63;;;;;;;8.69;33.66;99569.97;6148146;23;20048;-90
2023/02/28 08:14:35;;;;;;;4.97;2.80;;;;;;;8.44;32.96;99623.59;6152014;23;20031;-85
2023/02/28 08:20:44;;;;;;;12.45;2.55;;;;;;;10.72;32.31;99569.91;6056663;23;20018;-87
2023/02/28 08:23:14;;;;;;;3.90;2.45;;;;;;;11.12;31.07;99547.66;6029431;23;20133;-87
2023/02/28 08:25:54;;;;;;;6.47;2.67;;;;;;;11.26;31.38;99487.53;6029960;23;20023;-86
2023/02/28 08:29:01;;;;;;;;;;;;;;;;;;;;;
2023/02/28 08:31:39;;;;;;;5.57;2.90;;;;;;;10.33;29.76;99483.66;6076023;23;20507;-88
2023/02/28 08:34:27;;;;;;;6.20;3.80;;;;;;;10.25;30.77;99579.97;6120849;23;20037;-87
2023/02/28 08:37:20;;;;;;;4.10;2.53;;;;;;;9.56;30.44;99527.84;6121517;23;20068;-84
2023/02/28 08:40:40;;;;;;;5.05;2.70;;;;;;;7.86;31.25;99539.97;6123746;23;20010;-84
2023/02/28 08:43:34;;;;;;;3.95;2.70;;;;;;;6.14;32.21;99516.44;6092296;23;20017;-85
2023/02/28 08:46:15;;;;;;;4.15;2.67;;;;;;;4.69;34.12;99444.88;6120243;23;20022;-84
2023/02/28 08:48:45;;;;;;;5.93;3.08;;;;;;;4.66;34.88;99525.59;6118167;23;20021;-84
2023/02/28 08:51:55;;;;;;;4.53;2.70;;;;;;;4.10;35.57;99482.88;6145858;23;20024;-84
2023/02/28 08:57:42;;;;;;;7.38;2.75;;;;;;;3.66;37.96;99417.13;6153282;23;20032;-85
2023/02/28 09:00:18;;;;;;;5.03;2.72;;;;;;;4.88;37.72;99546.44;6151593;23;20020;-84
2023/02/28 09:03:01;;;;;;;4.18;2.65;;;;;;;4.17;37.42;99494.97;6104954;23;20049;-84
2023/02/28 09:05:54;;;;;;;4.97;2.85;;;;;;;4.40;38.29;99539.91;6144917;23;20021;-86
2023/02/28 09:08:32;;;;;;;4.32;2.75;;;;;;;3.89;37.60;99465.44;6095690;23;20024;-88
2023/02/28 09:11:09;;;;;;;6.57;3.40;;;;;;;4.64;37.69;99606.34;6142579;23;20064;-83
2023/02/28 09:13:40;;;;;;;5.93;3.10;;;;;;;4.65;38.31;99587.44;6143073;23;20085;-85
2023/02/28 09:16:17;;;;;;;6.57;3.30;;;;;;;3.90;37.62;99509.22;6104026;23;20033;-87
2023/02/28 09:18:48;;;;;;;5.65;3.10;;;;;;;3.90;39.02;99578.75;6183515;23;20009;-84
2023/02/28 09:21:28;;;;;;;6.13;3.45;;;;;;;3.58;38.54;99599.72;6098146;23;20483;-84
2023/02/28 09:24:00;;;;;;;6.95;3.60;;;;;;;2.99;39.70;99566.97;6098769;23;20020;-85
2023/02/28 09:26:32;;;;;;;8.13;3.50;;;;;;;2.52;40.63;99540.41;6144388;23;20021;-85
2023/02/28 09:29:21;;;;;;;15.57;4.35;;;;;;;2.53;40.93;99569.53;6141846;23;20040;-89
2023/02/28 09:31:50;;;;;;;6.65;3.53;;;;;;;2.22;41.60;99550.94;6135057;23;20019;-87
2023/02/28 09:34:17;;;;;;;7.07;3.70;;;;;;;1.90;42.27;99545.94;6110817;23;20145;-87
2023/02/28 09:36:54;;;;;;;6.00;3.30;;;;;;;1.59;42.51;99541.00;6136645;23;20014;-85
2023/02/28 09:39:34;;;;;;;5.40;3.17;;;;;;;1.08;43.38;99508.16;6112998;23;20013;-89
2023/02/28 09:42:02;;;;;;;5.32;3.53;;;;;;;0.93;44.08;99499.25;6138283;23;20017;-87
2023/02/28 09:44:36;;;;;;;;;;;;;;;1.03;44.05;99538.78;6091735;23;20021;-84
2023/02/28 09:47:21;;;;;;;5.32;2.95;;;;;;;0.79;45.25;99514.25;6113629;23;19919;-87
2023/02/28 09:49:59;;;;;;;7.65;3.22;;;;;;;0.89;44.86;99564.94;6139109;23;20033;-89
2023/02/28 09:52:31;;;;;;;6.88;3.10;;;;;;;0.82;45.29;99550.22;6117196;23;20412;-88
2023/02/28 09:55:24;;;;;;;9.05;3.53;;;;;;;0.01;46.24;99426.00;6162874;23;20018;-87
2023/02/28 09:57:51;;;;;;;6.53;3.17;;;;;;;0.71;46.02;99536.25;6122604;23;20021;-84
2023/02/28 10:00:26;;;;;;;5.97;3.10;;;;;;;0.66;46.14;99504.53;6153943;23;20021;-84
2023/02/28 10:03:10;;;;;;;6.38;3.00;;;;;;;1.02;46.39;99550.75;6141323;23;20028;-85
2023/02/28 10:05:59;;;;;;;5.70;3.00;;;;;;;0.67;46.64;99466.13;6112233;23;20077;-88
2023/02/28 10:08:31;;;;;;;4.70;2.55;;;;;;;1.15;46.18;99531.41;6110193;23;20269;-85
2023/02/28 10:11:04;;;;;;;6.38;2.83;;;;;;;0.43;47.07;99400.69;6132213;23;20022;-86
2023/02/28 10:13:40;;;;;;;5.95;2.97;;;;;;;0.95;47.34;99486.50;6086100;23;20013;-84
2023/02/28 10:16:47;;;;;;;6.18;2.92;;;;;;;1.25;47.60;99534.19;6111442;23;20029;-86
2023/02/28 10:19:38;;;;;;;5.05;2.53;;;;;;;1.32;47.10;99501.06;6136989;23;20016;-88
2023/02/28 10:22:27;;;;;;;4.85;2.50;;;;;;;1.19;46.80;99499.91;6133961;23;20100;-87
2023/02/28 10:24:59;;;;;;;5.47;2.50;;;;;;;0.21;48.08;99372.81;6159055;23;20022;-86
2023/02/28 10:27:30;;;;;;;4.13;2.53;;;;;;;0.23;47.98;99397.59;6111935;23;20017;-85
2023/02/28 10:30:00;;;;;;;6.20;2.60;;;;;;;0.22;48.22;99389.88;6136002;23;20017;-84
2023/02/28 10:32:33;;;;;;;4.80;2.70;;;;;;;0.44;48.08;99401.53;6147474;23;20033;-87
2023/02/28 10:35:33;;;;;;;6.10;3.15;;;;;;;0.79;48.68;99473.28;6122148;23;20014;-87
2023/02/28 10:38:14;;;;;;;5.63;2.80;;;;;;;0.76;48.85;99468.09;6139636;23;20073;-86
2023/02/28 10:40:41;;;;;;;4.93;2.80;;;;;;;-0.17;49.03;99338.53;6126044;23;20069;-85
2023/02/28 10:43:16;;;;;;;6.47;3.10;;;;;;;0.59;49.19;99470.22;6140285;23;20009;-86
2023/02/28 10:46:02;;;;;;;6.78;3.00;;;;;;;-0.18;49.33;99353.84;6079164;23;20009;-87
2023/02/28 10:48:35;;;;;;;6.78;3.13;;;;;;;0.21;49.31;99398.41;6126279;23;20373;-88
2023/02/28 10:51:08;;;;;;;9.40;2.90;;;;;;;0.24;49.83;99407.00;6100710;23;20017;-86
2023/02/28 10:53:48;;;;;;;5.10;2.70;;;;;;;0.63;49.92;99454.09;6121068;23;20022;-86
2023/02/28 10:56:23;;;;;;;6.60;3.88;;;;;;;0.47;49.91;99447.72;6109749;23;20040;-86
2023/02/28 10:59:03;;;;;;;6.15;3.15;;;;;;;0.39;50.45;99431.25;6106429;23;20069;-85
2023/02/28 11:01:45;;;;;;;4.75;2.70;;;;;;;0.41;50.89;99453.53;6113424;23;20188;-87
2023/02/28 11:04:22;;;;;;;5.53;2.70;;;;;;;0.47;50.59;99457.94;6138836;23;20026;-84
2023/02/28 11:07:00;;;;;;;4.45;2.20;;;;;;;0.24;49.89;99403.56;6079848;23;20025;-86
2023/02/28 11:09:34;;;;;;;4.78;2.47;;;;;;;0.34;50.34;99417.47;6126194;23;20025;-85
2023/02/28 11:12:04;;;;;;;5.30;2.70;;;;;;;0.31;50.20;99392.66;6104272;23;20018;-85
2023/02/28 11:14:35;;;;;;;5.18;3.17;;;;;;;0.63;50.83;99418.25;6106028;23;20096;-83
2023/02/28 11:17:21;;;;;;;5.95;2.80;;;;;;;0.75;50.02;99433.06;6101948;23;20018;-86
2023/02/28 11:19:51;;;;;;;5.03;2.70;;;;;;;0.62;50.99;99425.88;6105437;23;20022;-88
2023/02/28 11:22:21;;;;;;;4.35;2.35;;;;;;;0.53;50.08;99422.28;6105974;23;20021;-84
2023/02/28 11:24:53;;;;;;;4.05;2.38;;;;;;;0.06;50.61;99358.75;6133920;23;20045;-83
2023/02/28 11:27:26;;;;;;;4.30;2.55;;;;;;;0.05;51.00;99366.41;6105802;23;20014;-85
2023/02/28 11:29:53;;;;;;;5.30;2.85;;;;;;;-0.02;51.13;99345.75;6080036;23;20483;-84
2023/02/28 11:32:21;;;;;;;4.95;2.70;;;;;;;0.19;51.08;99388.09;6101173;23;20070;-86
2023/02/28 11:35:24;;;;;;;5.78;3.20;;;;;;;0.33;51.87;99415.78;6080009;23;20029;-84
2023/02/28 11:37:51;;;;;;;5.88;3.17;;;;;;;-0.02;51.64;99371.34;6102687;23;20040;-87
2023/02/28 11:40:29;;;;;;;5.05;2.97;;;;;;;-0.18;51.15;99349.59;6140709;23;20427;-87
2023/02/28 11:43:39;;;;;;;4.05;2.67;;;;;;;-0.65;51.97;99295.44;6116670;23;20018;-85
2023/02/28 11:46:21;;;;;;;4.20;2.33;;;;;;;-0.34;52.69;99343.22;6055071;23;20028;-87
2023/02/28 11:49:13;;;;;;;4.50;2.90;;;;;;;-0.16;52.94;99345.38;6079675;23;20018;-85
2023/02/28 11:51:54;;;;;;;5.15;2.60;;;;;;;-0.07;52.42;99336.25;6101657;23;20418;-84
2023/02/28 11:54:32;;;;;;;5.72;3.33;;;;;;;0.17;53.03;99366.72;6105864;23;20033;-87
2023/02/28 11:57:22;;;;;;;5.63;2.65;;;;;;;-0.27;53.10;99308.44;6083598;23;20780;-86
2023/02/28 12:00:04;;;;;;;3.90;2.42;;;;;;;-0.37;53.10;99292.00;6080136;23;20018;-84
2023/02/28 12:03:00;;;;;;;5.72;2.95;;;;;;;0.17;53.64;99376.09;6102924;23;20028;-86
2023/02/28 12:05:57;;;;;;;5.20;3.33;;;;;;;0.18;53.60;99371.00;6127868;23;20018;-88
2023/02/28 12:08:58;;;;;;;4.63;3.10;;;;;;;0.39;53.55;99380.06;6114003;23;20002;-84
2023/02/28 12:11:44;;;;;;;5.95;2.83;;;;;;;0.37;53.88;99374.03;6120222;23;20016;-83
2023/02/28 12:14:39;;;;;;;6.30;2.90;;;;;;;0.35;53.15;99370.56;6114091;23;20018;-85
2023/02/28 12:17:16;;;;;;;4.47;2.67;;;;;;;0.11;54.18;99341.84;6144821;23;20017;-84
2023/02/28 12:20:19;;;;;;;8.15;4.78;;;;;;;0.08;54.38;99330.66;6108798;23;20009;-87
2023/02/28 12:23:10;;;;;;;6.97;4.15;;;;;;;0.17;53.75;99353.91;6108486;23;20046;-84
2023/02/28 12:25:54;;;;;;;4.82;3.08;;;;;;;0.15;54.20;99355.56;6109755;23;20018;-84
2023/02/28 12:28:29;;;;;;;6.35;3.35;;;;;;;-0.11;54.50;99304.56;6083860;23;20022;-87
2023/02/28 12:31:11;;;;;;;6.90;3.70;;;;;;;-0.32;54.75;99280.16;6105666;23;20014;-87
2023/02/28 12:33:45;;;;;;;8.57;4.30;;;;;;;0.02;54.57;99336.47;6084595;23;20110;-84
2023/02/28 12:36:19;;;;;;;5.18;3.35;;;;;;;0.20;55.14;99341.22;6119005;23;20012;-87
2023/02/28 12:38:56;;;;;;;;;;;;;;;0.18;54.48;99353.09;6143274;23;20044;-85
2023/02/28 12:41:33;;;;;;;7.85;3.78;;;;;;;-0.35;54.98;99264.78;6083635;23;19924;-86
2023/02/28 12:44:08;;;;;;;6.35;3.65;;;;;;;-0.44;55.17;99259.41;6083662;23;20112;-86
2023/02/28 12:46:45;;;;;;;8.07;4.18;;;;;;;0.07;55.45;99329.78;6132114;23;20013;-86
2023/02/28 12:49:39;;;;;;;5.80;3.38;;;;;;;-0.33;55.96;99262.25;6080853;23;20025;-84
2023/02/28 12:52:13;;;;;;;6.65;3.03;;;;;;;0.02;55.53;99304.91;6056070;23;20024;-85
2023/02/28 12:55:40;;;;;;;5.85;3.13;;;;;;;0.16;55.25;99308.69;6065376;23;20013;-84
2023/02/28 12:58:54;;;;;;;5.30;2.90;;;;;;;-0.40;55.18;99242.44;6023488;23;20030;-87
2023/02/28 13:01:27;;;;;;;;;;;;;;;-0.10;56.33;99306.31;6013105;23;20039;-83
2023/02/28 13:04:11;;;;;;;5.50;3.15;;;;;;;-0.14;56.93;99301.97;6081097;23;19912;-86
2023/02/28 13:07:08;;;;;;;6.15;3.05;;;;;;;-0.18;56.67;99302.72;6079336;23;20423;-84
2023/02/28 13:09:35;;;;;;;5.57;2.80;;;;;;;-0.62;56.84;99246.97;6104022;23;20021;-85
2023/02/28 13:12:01;;;;;;;4.75;3.05;;;;;;;-0.52;57.30;99289.00;6075626;23;20018;-86
2023/02/28 13:14:33;;;;;;;5.32;3.17;;;;;;;-0.47;58.47;99288.31;6105221;23;20452;-86
2023/02/28 13:17:11;;;;;;;8.25;4.28;;;;;;;-0.47;58.71;99264.44;6127978;23;20041;-86
2023/02/28 13:19:45;;;;;;;7.32;4.03;;;;;;;-0.65;58.33;99222.22;6130486;23;20328;-84
2023/02/28 13:22:25;;;;;;;6.20;3.80;;;;;;;-0.65;58.10;99206.88;6135704;23;20014;-84
2023/02/28 13:24:58;;;;;;;7.75;4.45;;;;;;;-0.98;58.73;99151.47;6145918;23;20053;-83
2023/02/28 13:27:36;;;;;;;5.68;3.00;;;;;;;-0.71;58.86;99205.84;6119902;23;20017;-85
2023/02/28 13:30:41;;;;;;;7.97;3.95;;;;;;;-0.40;58.59;99262.91;6124835;23;20020;-84
2023/02/28 13:33:53;;;;;;;9.70;4.72;;;;;;;-0.32;59.03;99256.31;6121732;23;20006;-85
2023/02/28 13:36:30;;;;;;;7.25;3.97;;;;;;;-0.49;59.47;99238.84;6127907;23;20071;-85
2023/02/28 13:39:03;;;;;;;6.35;3.60;;;;;;;-0.37;58.60;99257.88;6123894;23;20022;-83
2023/02/28 13:41:36;;;;;;;5.90;3.67;;;;;;;-0.41;59.31;99254.38;6148221;23;20136;-86
2023/02/28 13:44:07;;;;;;;6.63;3.58;;;;;;;-0.42;59.36;99259.44;6122295;23;20022;-85
2023/02/28 13:46:55;;;;;;;6.43;3.20;;;;;;;-0.47;59.49;99257.63;6080600;23;20070;-87
2023/02/28 13:49:36;;;;;;;9.27;3.95;;;;;;;-0.51;59.52;99237.03;6126158;23;20013;-84
2023/02/28 13:52:29;;;;;;;;;;;;;;;;;;;;;
2023/02/28 13:55:01;;;;;;;5.03;3.07;;;;;;;-0.31;59.27;99241.00;6122079;23;20018;-84
2023/02/28 13:57:52;;;;;;;5.35;2.85;;;;;;;-0.37;59.90;99235.75;6123489;23;20246;-82
2023/02/28 14:01:12;;;;;;;5.95;3.63;;;;;;;-0.32;60.12;99235.84;6076910;23;20021;-83
2023/02/28 14:04:27;;;;;;;4.65;2.75;;;;;;;-0.39;59.28;99226.28;6097351;23;20905;-87
2023/02/28 14:07:28;;;;;;;6.00;2.75;;;;;;;-1.22;60.37;99088.72;6147279;23;20065;-85
2023/02/28 14:10:05;;;;;;;9.48;3.83;;;;;;;-0.43;60.20;99222.78;6145068;23;20014;-85
2023/02/28 14:16:51;;;;;;;6.95;3.60;;;;;;;-0.55;60.77;99213.09;6002807;23;20026;-87
2023/02/28 14:19:35;;;;;;;5.05;2.95;;;;;;;-0.58;60.44;99196.81;6044801;23;20360;-83
2023/02/28 14:22:24;;;;;;;5.38;2.88;;;;;;;-0.35;60.36;99226.41;6095704;23;20021;-85
2023/02/28 14:25:39;;;;;;;6.05;3.17;;;;;;;-0.50;60.99;99197.88;6071078;23;20045;-86
2023/02/28 14:28:47;;;;;;;5.47;3.15;;;;;;;-0.19;60.38;99226.81;6118562;23;20025;-85
2023/02/28 14:36:06;;;;;;;4.90;2.80;;;;;;;-0.61;60.66;99120.91;6112577;23;20045;-86
2023/02/28 14:39:43;;;;;;;;;;;;;;;;;;;;;
2023/02/28 14:43:10;;;;;;;5.32;3.28;;;;;;;0.19;61.20;99211.50;6100119;23;20009;-85
2023/02/28 14:46:33;;;;;;;5.88;2.80;;;;;;;0.19;60.35;99201.28;6078596;23;20373;-89
2023/02/28 14:53:54;;;;;;;;;;;;;;;;;;;;;
2023/02/28 14:56:49;;;;;;;4.05;2.63;;;;;;;-0.63;60.81;99058.69;6027616;23;20002;-85
2023/02/28 15:35:20;;;;;;;5.38;2.80;;;;;;;0.20;62.46;99162.06;6129208;23;20072;-88
2023/02/28 15:38:02;;;;;;;5.82;3.15;;;;;;;0.20;62.01;99194.47;6151942;23;20004;-87
2023/02/28 15:40:59;;;;;;;6.80;2.90;;;;;;;-0.24;62.34;99098.81;6130657;23;20008;-84
2023/02/28 15:50:34;;;;;;;5.40;3.25;;;;;;;0.24;62.96;99156.19;6136181;23;20018;-87
2023/02/28 15:54:31;;;;;;;4.90;3.28;;;;;;;0.37;62.92;99159.88;6053804;23;20001;-87
2023/02/28 15:58:16;;;;;;;;;;;;;;;;;;;;;
2023/02/28 16:08:41;;;;;;;4.93;3.00;;;;;;;0.45;62.31;99142.97;6169084;23;20029;-84
2023/02/28 16:12:13;;;;;;;6.18;2.50;;;;;;;0.45;63.35;99142.97;6111541;23;20038;-86
2023/02/28 16:15:54;;;;;;;5.88;3.28;;;;;;;0.53;63.25;99152.53;6176241;23;20363;-86
2023/02/28 16:18:41;;;;;;;5.30;3.20;;;;;;;0.42;63.05;99119.03;6093540;23;20058;-88
2023/02/28 16:21:10;;;;;;;5.57;2.90;;;;;;;0.52;62.56;99128.63;6090845;23;20013;-85
2023/02/28 16:24:00;;;;;;;4.95;2.90;;;;;;;-0.30;63.45;98975.94;6136756;23;20022;-87
2023/02/28 16:27:03;;;;;;;5.43;2.95;;;;;;;0.27;63.34;99061.56;6110521;23;20027;-89
2023/02/28 16:29:41;;;;;;;4.05;2.80;;;;;;;0.23;63.15;99028.19;6122867;23;20041;-85
2023/02/28 16:32:07;;;;;;;4.35;3.03;;;;;;;0.40;63.28;99056.69;6126422;23;20017;-88
2023/02/28 16:34:57;;;;;;;6.10;3.28;;;;;;;0.86;62.80;99126.75;6099800;23;20021;-87
2023/02/28 16:37:27;;;;;;;4.00;2.70;;;;;;;0.63;63.64;99092.13;6101234;23;20014;-86
2023/02/28 16:40:04;;;;;;;5.05;3.10;;;;;;;0.76;63.80;99091.56;6115327;23;20013;-86
2023/02/28 16:42:38;;;;;;;4.45;2.75;;;;;;;0.67;63.29;99078.56;6142638;23;20112;-87
2023/02/28 16:45:06;;;;;;;4.63;2.97;;;;;;;0.50;64.11;99053.50;6131989;23;20013;-87
2023/02/28 16:47:37;;;;;;;4.90;2.38;;;;;;;0.70;63.86;99070.94;6121662;23;20044;-88
2023/02/28 16:50:22;;;;;;;4.68;2.78;;;;;;;0.20;64.13;98995.72;6119261;23;20025;-89
2023/02/28 16:52:51;;;;;;;5.78;3.60;;;;;;;0.51;63.86;99039.84;6113488;23;20104;-86
2023/02/28 16:55:36;;;;;;;5.63;3.20;;;;;;;0.62;64.04;99037.50;6093956;23;20024;-86
2023/02/28 16:58:13;;;;;;;3.95;2.65;;;;;;;0.69;63.56;99047.00;6098857;23;20013;-85
2023/02/28 17:00:43;;;;;;;5.30;2.92;;;;;;;0.71;63.96;99041.94;6119643;23;20009;-87
2023/02/28 17:03:25;;;;;;;3.90;2.67;;;;;;;1.24;64.25;99119.72;6081425;23;20341;-86
2023/02/28 17:05:55;;;;;;;5.97;2.60;;;;;;;0.92;64.16;99017.53;6112286;23;20029;-85
2023/02/28 17:08:22;;;;;;;4.88;2.45;;;;;;;1.40;63.93;99096.13;6117508;23;20066;-84
2023/02/28 17:10:48;;;;;;;4.68;2.38;;;;;;;1.37;63.56;99093.50;6107734;23;20112;-84
2023/02/28 17:13:14;;;;;;;4.00;2.60;;;;;;;1.14;63.42;99054.63;6131662;23;20037;-87
2023/02/28 17:16:01;;;;;;;3.03;2.47;;;;;;;1.45;64.08;99091.91;6111438;23;20037;-85
2023/02/28 17:18:34;;;;;;;3.83;2.60;;;;;;;1.45;63.58;99089.34;6089417;23;20025;-85
2023/02/28 17:21:07;;;;;;;3.65;2.58;;;;;;;1.38;62.81;99078.97;6112335;23;20024;-86
2023/02/28 17:23:42;;;;;;;3.38;2.40;;;;;;;0.88;63.73;99014.06;6106483;23;20025;-87
2023/02/28 17:26:27;;;;;;;;;;;;;;;;;;;;;
2023/02/28 17:29:28;;;;;;;4.63;3.00;;;;;;;1.40;64.14;99079.84;6095753;23;20211;-86
2023/02/28 17:32:00;;;;;;;3.20;2.47;;;;;;;0.75;63.64;98967.72;6084845;23;20022;-87
2023/02/28 17:34:35;;;;;;;4.18;2.10;;;;;;;1.37;63.40;99090.94;6104453;23;20017;-86
2023/02/28 17:37:01;;;;;;;4.22;2.78;;;;;;;0.83;63.59;99001.16;6101215;23;20022;-89
2023/02/28 17:39:34;;;;;;;6.45;3.10;;;;;;;1.15;64.14;99064.06;6080839;23;20018;-87
2023/02/28 17:42:00;;;;;;;4.72;2.85;;;;;;;0.51;64.21;98964.72;6126749;23;20020;-87
2023/02/28 17:44:27;;;;;;;5.72;2.85;;;;;;;0.62;63.91;99011.00;6102380;23;20123;-85
2023/02/28 17:47:05;;;;;;;4.07;2.35;;;;;;;0.25;64.57;98949.75;6086073;23;20109;-87
2023/02/28 17:49:31;;;;;;;5.35;2.80;;;;;;;0.55;64.60;99000.66;6118810;23;20022;-87
2023/02/28 17:51:58;;;;;;;4.28;2.63;;;;;;;0.50;64.21;98991.16;6110879;23;20128;-87
2023/02/28 17:54:26;;;;;;;3.40;2.25;;;;;;;0.92;64.69;99069.63;6103321;23;20467;-84
2023/02/28 17:56:52;;;;;;;3.17;2.22;;;;;;;0.87;64.95;99053.34;6101845;23;20018;-88
2023/02/28 17:59:18;;;;;;;4.80;2.20;;;;;;;0.85;64.46;99049.88;6126589;23;20024;-85
2023/02/28 18:01:45;;;;;;;3.40;1.73;;;;;;;0.55;64.78;99016.00;6103702;23;20028;-87
2023/02/28 18:04:11;;;;;;;2.08;1.60;;;;;;;0.26;64.38;98975.38;6129894;23;20163;-85
2023/02/28 18:06:47;;;;;;;4.40;1.80;;;;;;;0.24;64.68;98976.16;6077092;23;20029;-89
2023/02/28 18:09:17;;;;;;;3.25;1.70;;;;;;;0.78;65.00;99071.94;6100582;23;20045;-86
2023/02/28 18:11:52;;;;;;;2.22;1.40;;;;;;;0.86;64.48;99090.88;6056070;23;20554;-88
2023/02/28 18:14:47;;;;;;;2.10;1.00;;;;;;;0.62;64.26;99067.34;6108454;23;20124;-89
2023/02/28 18:17:19;;;;;;;1.40;0.73;;;;;;;0.28;64.10;99041.94;6081977;23;20018;-88